x

8537121 - Ship John Shoal, Nj (sjsn4) Weather Station

5:54am - Sun 21st Dec 2014 All times are EST. -5 hours from GMT.

  • Wind
    7mph, 8mph gusts
  • Sea Temp 42°f
  • Air Temp 34°f
  • Sea Pressure 1026.7mb
  • 8537121 - Ship John Shoal, Nj
  • 8537121 - Ship John Shoal, Nj

More Historic Weather Station data

Upgrade to MSW Pro to gain access to the past 30 days of data for over 8000 Wavebouys and Weather Stations around the globe.

Join Pro

Comparision Forecast

View Surf forecast
   
Sun 12/21 5:54am 7 8 mph 1026.7mb 42f 34f
5:48am 7 8 mph 1026.6mb 42f 34f
5:42am 6 7 mph 1026.5mb 42f 34f
5:36am 6 7 mph 1026.4mb 42f 34f
5:30am 6 7 mph 1026.4mb 42f 34f
5:24am 6
mph
1026.3mb 42f 34f
5:18am 5 6 mph 1026.2mb 42f 34f
5:12am 5 6 mph 1026.1mb 42f 34f
5:06am 5 6 mph 1026mb 42f 34f
5:00am 5 6 mph 1025.9mb 42f 34f
4:54am 6
mph
1025.9mb 42f 34f
4:48am 6 7 mph 1025.9mb 42f 34f
4:42am 6 7 mph 1026mb 42f 34f
4:36am 6 7 mph 1026mb 42f 34f
4:30am 6 7 mph 1026mb 42f 34f
4:24am 6 7 mph 1026mb 42f 34f
4:18am 6 7 mph 1026.1mb 42f 34f
4:12am 6 7 mph 1026.2mb 42f 34f
4:06am 6
mph
1026.2mb 42f 34f
4:00am 6
mph
1026.2mb 42f 34f
3:54am 6 7 mph 1026.3mb 42f 34f
3:48am 6 7 mph 1026.4mb 42f 34f
3:42am 7
mph
1026.5mb 42f 34f
3:36am 7
mph
1026.6mb 42f 34f
3:30am 6 7 mph 1026.6mb 42f 34f
3:24am 6
mph
1026.6mb 42f 34f
3:18am 5 6 mph 1026.5mb 42f 34f
3:12am 5 6 mph 1026.5mb 42f 34f
3:06am 6
mph
1026.5mb 42f 34f
3:00am 6
mph
1026.5mb 42f 34f
2:54am 5 6 mph 1026.5mb 42f 34f
2:48am 1 2 mph 1026.4mb 42f 34f
2:42am 1 2 mph 1026.3mb 42f 34f
2:36am 2 3 mph 1026.4mb 42f 34f
2:30am  -  2 mph 1026.4mb 42f 34f
2:24am 2
mph
1026.4mb 42f 34f
2:18am  -  1 mph 1026.4mb 42f 34f
2:12am  -  1 mph 1026.2mb 42f 34f
2:06am  -  1 mph 1026.2mb 42f 34f
2:00am  -  2 mph 1026.2mb 42f 34f
1:54am 1 2 mph 1026.3mb 42f 34f
1:48am  -  mph 1026.2mb 42f 34f
1:42am  -  mph 1026.2mb - 34f
1:36am  -  1 mph 1026.2mb - 34f
1:30am  -  1 mph 1026.3mb - 34f
1:24am  -  1 mph 1026.3mb 42f 34f
1:18am  -  1 mph 1026.1mb 42f 34f
1:12am 1 2 mph 1026.2mb 42f 34f
1:06am 1 2 mph 1026.1mb 42f 34f
1:00am 2 3 mph 1026.2mb 42f 34f
12:54am 2 5 mph 1026.1mb 42f 34f
12:48am 2 3 mph 1026.1mb 42f 34f
12:42am 3 5 mph 1026mb 42f 34f
12:36am 2 5 mph 1026mb 42f 34f
12:30am 3 6 mph 1026mb 42f 34f
12:24am 3 6 mph 1026mb 42f 34f
12:18am 2 5 mph 1026.1mb 42f 34f
12:12am 3 5 mph 1026.2mb 42f 34f
12:06am 2 5 mph 1026.2mb 42f 34f
12:00am 2 5 mph 1026.2mb 42f 34f
Sat 12/20 11:54pm 2 5 mph 1026.2mb 42f 33f
11:48pm 2 6 mph 1026.3mb 42f 34f
11:42pm 2 5 mph 1026.3mb - 34f
11:36pm 2 5 mph 1026.4mb 42f 34f
11:30pm 2 6 mph 1026.3mb 42f 34f
11:24pm 3 6 mph 1026.4mb 42f 34f
11:18pm 2 5 mph 1026.4mb 42f 34f
11:12pm 2 5 mph 1026.4mb 42f 34f
11:06pm 3 6 mph 1026.4mb 42f 34f
11:00pm 2 5 mph 1026.5mb 42f 34f
10:54pm 3 5 mph 1026.6mb 42f 34f
10:48pm 3 6 mph 1026.6mb 42f 34f
10:42pm 1 3 mph 1026.6mb 42f 34f
10:36pm 1 3 mph 1026.5mb 42f 34f
10:30pm 2 3 mph 1026.5mb 42f 34f
10:24pm 2 5 mph 1026.5mb 42f 34f
10:18pm 3 5 mph 1026.5mb 42f 34f
10:12pm 5 6 mph 1026.4mb 42f 34f
10:06pm 3 5 mph 1026.3mb 42f 34f
10:00pm 3 6 mph 1026.1mb 42f 34f
9:54pm 3 6 mph 1026.1mb 42f 34f
9:48pm 3 7 mph 1026.2mb 42f 34f
9:42pm 5 6 mph 1026.3mb 42f 34f
9:36pm 5 6 mph 1026.2mb 42f 34f
9:30pm 5 6 mph 1026.1mb 42f 34f
9:24pm 5 6 mph 1026.1mb 42f 34f
9:18pm 5 7 mph 1026.1mb 42f 34f
9:12pm 5 7 mph 1026mb 42f 34f
9:06pm 5 6 mph 1026mb 42f 34f
9:00pm 3 5 mph 1026.2mb 42f 34f
8:54pm 3 6 mph 1026.2mb 42f 34f
8:48pm 5 6 mph 1026.1mb 42f 34f
8:42pm 5 6 mph 1026mb 42f 34f
8:36pm 5 6 mph 1026.1mb 42f 34f
8:30pm 3 6 mph 1026.1mb 42f 34f
8:24pm 3 6 mph 1026.1mb 42f 34f
8:18pm 3 6 mph 1026.2mb 42f 34f
8:12pm 3 5 mph 1026.3mb 42f 34f
8:06pm 2 3 mph 1026.3mb 42f 34f
8:00pm 2 5 mph 1026.4mb 42f 34f
7:54pm 2 3 mph 1026.5mb 42f 34f
7:48pm 2 3 mph 1026.5mb 42f 34f
7:42pm 3 5 mph 1026.5mb 42f 34f
7:36pm 2 5 mph 1026.5mb 42f 34f
7:30pm 2 6 mph 1026.5mb 42f 34f
7:24pm 3 5 mph 1026.4mb 42f 34f
7:18pm 3 5 mph 1026.4mb 42f 34f
7:12pm 3 6 mph 1026.4mb 42f 34f
7:06pm 5 6 mph 1026.2mb 42f 34f
7:00pm 6 7 mph 1026.1mb 42f 34f
6:54pm 6 7 mph 1026mb 42f 34f
6:48pm 5 6 mph 1026mb 42f 34f
6:42pm 6 7 mph 1026mb 42f 34f
6:36pm 6 7 mph 1025.9mb 42f 34f
6:30pm 6 7 mph 1025.9mb 42f 35f
6:24pm 6 8 mph 1025.9mb 42f 34f
6:18pm 6 7 mph 1025.8mb - 34f
6:12pm 6 7 mph 1025.7mb 42f 34f
6:06pm 7
mph
1025.7mb 42f 34f
6:00pm 6 8 mph 1025.7mb 42f 34f
5:54pm 6 7 mph 1025.8mb 42f 34f
5:48pm 3 6 mph 1025.8mb 42f 35f
5:42pm 6 7 mph 1025.8mb 42f 35f
5:36pm 6 8 mph 1025.6mb 42f 35f
5:30pm 8 9 mph 1025.5mb 42f 35f
5:24pm 7 8 mph 1025.4mb 42f 35f
5:18pm 7 8 mph 1025.4mb 42f 35f
5:12pm 7 8 mph 1025.5mb 42f 35f
5:06pm 7 8 mph 1025.5mb 42f 35f
5:00pm 7 8 mph 1025.5mb 42f 35f
4:54pm 6 7 mph 1025.5mb 42f 35f
4:48pm 5 6 mph 1025.6mb 42f 35f
4:42pm 6 7 mph 1025.6mb 42f 35f
4:36pm 5 7 mph 1025.5mb 42f 35f
4:30pm 6 8 mph 1025.5mb 42f 35f
4:24pm 7 9 mph 1025.4mb 42f 35f
4:18pm 6 8 mph 1025.4mb 42f 35f
4:12pm 7
mph
1025.3mb 42f 35f
4:06pm 7
mph
1025.3mb 42f 35f
4:00pm 6 7 mph 1025.1mb 42f 35f
3:54pm 7 8 mph 1025.1mb 42f 35f
3:48pm 7 8 mph 1025mb 42f 35f
3:42pm 6 8 mph 1025.1mb 42f 35f
3:36pm 6 8 mph 1025mb - 35f
3:30pm 5 8 mph 1025.1mb 42f 35f
3:24pm 6 7 mph 1025mb 42f 35f
3:18pm 7 8 mph 1025mb 42f 35f
3:12pm 6 8 mph 1025mb 42f 35f
3:06pm 5 7 mph 1025mb 42f 35f
3:00pm 6 7 mph 1025.1mb 42f 35f
2:54pm 5 6 mph 1025.1mb 42f 35f
2:48pm 5 7 mph 1025.1mb 42f 35f
2:42pm 6 8 mph 1025mb 42f 35f
2:36pm 5 6 mph 1024.9mb 42f 35f
2:30pm 3 5 mph 1024.8mb 42f 35f
2:24pm 3 5 mph 1024.9mb 42f 34f
2:18pm 3 6 mph 1024.9mb 42f 34f
2:12pm 5 6 mph 1024.9mb 42f 34f
2:06pm 6 7 mph 1024.9mb 42f 34f
2:00pm 6 7 mph 1024.9mb 42f 35f
1:54pm 3 7 mph 1024.9mb 42f 35f
1:48pm 5 7 mph 1024.8mb 42f 35f
1:42pm 6 7 mph 1024.8mb 42f 34f
1:36pm 6 7 mph 1024.9mb 42f 34f
1:30pm 5 6 mph 1024.9mb 42f 34f
1:24pm 6 7 mph 1024.9mb 42f 34f
1:18pm 7 8 mph 1024.9mb 42f 34f
1:12pm 6 7 mph 1025mb 42f 34f
1:06pm 6 7 mph 1025.1mb 42f 34f
1:00pm 6
mph
1025.2mb 42f 34f
12:54pm 3 5 mph 1025.5mb 42f 34f
12:48pm 3 6 mph 1025.6mb 42f 34f
12:42pm 3 5 mph 1025.8mb 42f 34f
12:36pm 3 5 mph 1025.9mb 42f 34f
12:30pm 2 5 mph 1025.9mb 42f 34f
12:24pm 5 6 mph 1026mb 42f 34f
12:18pm 5 7 mph 1026mb 42f 34f
12:12pm 6 7 mph 1026mb 42f 34f
12:06pm 5 7 mph 1026.1mb 42f 34f
12:00pm 7 8 mph 1026mb - 34f
11:54am 6 7 mph 1026mb 42f 34f
11:48am 5 6 mph 1025.7mb 42f 34f
11:42am 2 6 mph 1025.8mb 42f 34f
11:36am 3 6 mph 1025.8mb 42f 34f
11:30am 6
mph
1025.9mb 42f 34f
11:24am 2 3 mph 1026.1mb 42f 34f
11:18am 3 7 mph 1026.3mb 42f 34f
11:12am 6 8 mph 1026.2mb 42f 34f
11:06am 6 8 mph 1026.2mb 42f 34f
11:00am 6 8 mph 1026.1mb 42f 34f
10:54am 6 9 mph 1026.4mb 42f 34f
10:48am 7 9 mph 1026.2mb 42f 34f
10:42am 9 10 mph 1026.2mb 42f 34f
10:36am 6 10 mph 1026.6mb 42f 34f
10:30am 8 11 mph 1026.5mb 42f 34f
10:24am 9 11 mph 1026.4mb 42f 34f
10:18am 10 13 mph 1026.4mb 42f 34f
10:12am 8 11 mph 1026.5mb 42f 34f
10:06am 10 14 mph 1026.2mb 42f 34f
10:00am 7 9 mph 1026.6mb - 34f
9:54am 6
mph
1026.8mb 42f 34f
9:48am 5 6 mph 1026.9mb 42f 34f
9:42am 5 7 mph 1027mb 42f 34f
9:36am 6 9 mph 1026.9mb 42f 34f
9:30am 6 9 mph 1026.8mb 42f 34f
9:24am 8 9 mph 1026.6mb 42f 34f
9:18am 8 10 mph 1026.6mb 42f 34f
9:12am 8 10 mph 1026.5mb 42f 34f
9:06am 9 13 mph 1026.3mb 42f 34f
9:00am 11 13 mph 1026mb 42f 34f
8:54am 11 14 mph 1025.9mb 42f 34f
8:48am 10 13 mph 1026mb 42f 34f
8:42am 10 13 mph 1026.1mb 42f 34f
8:36am 11 13 mph 1026mb 42f 34f
8:30am 10 13 mph 1025.9mb 42f 34f
8:24am 10 11 mph 1025.9mb 42f 34f
8:18am 10 14 mph 1025.9mb 42f 34f
8:12am 11 14 mph 1025.9mb 42f 34f
8:06am 10 11 mph 1025.9mb 42f 34f
8:00am 9 13 mph 1025.9mb 42f 34f
7:54am 10 13 mph 1025.8mb 42f 34f
7:48am 10 13 mph 1025.8mb 42f 34f
7:42am 9 11 mph 1025.7mb 42f 34f
7:36am 9 11 mph 1025.7mb 42f 34f
7:30am 10 11 mph 1025.5mb 42f 34f
7:24am 10 11 mph 1025.4mb 42f 34f
7:18am 9 11 mph 1025.5mb 42f 34f
7:12am 9 11 mph 1025.4mb 42f 34f
7:06am 10 13 mph 1025.3mb 42f 34f
7:00am 10 13 mph 1025.2mb 42f 34f
6:54am 11 13 mph 1025.1mb 42f 34f
6:48am 10 14 mph 1025mb 42f 34f
6:42am 11 14 mph 1024.9mb 42f 34f
6:36am 13 14 mph 1024.8mb 42f 34f
6:30am 13 15 mph 1024.6mb 42f 34f
6:24am 13 15 mph 1024.5mb 42f 34f
6:18am 13 15 mph 1024.5mb 42f 34f
6:12am 11 14 mph 1024.5mb 42f 34f
6:06am 13 14 mph 1024.5mb 42f 34f
6:00am 11 14 mph 1024.5mb 42f 34f
5:54am 11 13 mph 1024.5mb 42f 34f
5:48am 11 15 mph 1024.4mb 42f 34f
5:42am 13 15 mph 1024.3mb 42f 34f
5:36am 14 16 mph 1024.2mb 42f 34f
5:30am 14 16 mph 1024.1mb 42f 34f
5:24am 14 15 mph 1024.1mb 42f 35f
5:18am 13 15 mph 1024.1mb 42f 34f
5:12am 13 15 mph 1024.1mb 42f 34f
5:06am 14 16 mph 1024mb 42f 34f
5:00am 15 16 mph 1024.1mb 42f 34f
4:54am 14 15 mph 1024.2mb 42f 34f
4:48am 14 15 mph 1024.2mb 42f 34f
4:42am 14 15 mph 1024.2mb 42f 34f
4:36am 14 15 mph 1024.1mb 42f 34f
4:30am 11 14 mph 1024mb 42f 34f
4:24am 11 13 mph 1024.1mb 42f 33f
4:18am 9 11 mph 1024mb 42f 33f
4:12am 10 13 mph 1024mb 42f 33f
4:06am 10 13 mph 1024.1mb 42f 33f
4:00am 11 14 mph 1024.1mb 42f 34f
3:54am 11 14 mph 1024.1mb 42f 33f
3:48am 11 13 mph 1024.1mb 42f 34f
3:42am 10 11 mph 1024.1mb 42f 33f
3:36am 10 11 mph 1024mb 42f 33f
3:30am 11 13 mph 1024mb 42f 33f
3:24am 11 13 mph 1023.9mb 42f 33f
3:18am 10 13 mph 1024mb 42f 33f
3:12am 11 13 mph 1023.9mb 42f 33f
3:06am 10 13 mph 1023.9mb 42f 33f
3:00am 9 11 mph 1023.8mb 42f 34f
2:54am 10 11 mph 1023.7mb 42f 34f
2:48am 10 13 mph 1023.6mb 42f 34f
2:42am 10 13 mph 1023.7mb 42f 34f
2:36am 10 13 mph 1023.6mb 42f 34f
2:30am 10 13 mph 1023.5mb 42f 33f
2:24am 10 11 mph 1023.4mb 42f 34f
2:18am 9 10 mph 1023.4mb 42f 33f
2:12am 9 10 mph 1023.3mb 42f 33f
2:06am 9 11 mph 1023.4mb 42f 33f
2:00am 10 11 mph 1023.4mb 42f 34f
1:54am 10 11 mph 1023.3mb 42f 34f
1:48am 10 11 mph 1023.1mb 42f 34f
1:42am 9 13 mph 1023.1mb 42f 34f
1:36am 10 13 mph 1023.1mb 42f 34f
1:30am 9 11 mph 1023.2mb 42f 33f
1:24am 9 10 mph 1023.2mb 42f 33f
1:18am 9 10 mph 1023.2mb 42f 33f
1:12am 9 10 mph 1023.2mb 42f 33f
1:06am 9 10 mph 1023.3mb 42f 34f
1:00am 10
mph
1023.3mb 42f 34f
12:54am 8 10 mph 1023.3mb 42f 34f
12:48am 9 10 mph 1023.2mb 42f 34f
12:42am 10
mph
1023.2mb 42f 34f
12:36am 9 10 mph 1023.2mb 42f 34f
12:30am 10 11 mph 1023.3mb 42f 34f
12:24am 10
mph
1023.3mb 42f 34f
12:18am 9 10 mph 1023.4mb 42f 35f
12:12am 10 11 mph 1023.4mb 42f 35f
12:06am 8 10 mph 1023.5mb 42f 35f
12:00am 8 11 mph 1023.5mb 42f 35f
Fri 12/19 11:54pm 10 11 mph 1023.5mb 42f 35f
11:48pm 11 13 mph 1023.4mb 42f 36f
11:42pm 10 14 mph 1023.4mb 42f 36f
11:36pm 11 16 mph 1023.4mb 42f 36f
11:30pm 14 15 mph 1023.4mb 42f 36f
11:24pm 15 16 mph 1023.4mb 42f 36f
11:18pm 14 16 mph 1023.4mb 42f 36f
11:12pm 14 15 mph 1023.3mb 42f 36f
11:06pm 13 15 mph 1023.5mb 42f 36f
11:00pm 11 15 mph 1023.4mb 42f 36f
10:54pm 11 14 mph 1023.3mb 42f 36f
10:48pm 11 15 mph 1023.4mb 42f 36f
10:42pm 13 15 mph 1023.2mb 42f 36f
10:36pm 11 16 mph 1023.3mb 42f 36f
10:30pm 14 16 mph 1023.2mb 42f 37f
10:24pm 14 17 mph 1023.2mb 42f 37f
10:18pm 15 16 mph 1023.2mb 42f 37f
10:12pm 16 17 mph 1023.2mb 42f 37f
10:06pm 16 18 mph 1023.1mb 42f 37f
10:00pm 17 20 mph 1023.1mb 42f 37f
9:54pm 17 20 mph 1022.9mb 42f 37f
9:48pm 18 20 mph 1022.8mb 42f 37f
9:42pm 18 21 mph 1022.7mb 42f 37f
9:36pm 17 20 mph 1022.8mb 42f 38f
9:30pm 17 21 mph 1022.5mb 42f 38f
9:24pm 18 21 mph 1022.4mb 42f 38f
9:18pm 18 22 mph 1022.4mb 42f 38f
9:12pm 18 21 mph 1022.2mb 42f 38f
9:06pm 17 22 mph 1022.3mb 42f 38f
9:00pm 17 21 mph 1022.2mb 42f 38f
8:54pm 18 21 mph 1022.2mb 42f 38f
8:48pm 17 20 mph 1022.2mb 42f 38f
8:42pm 16 17 mph 1022.2mb 42f 38f
8:36pm 15 18 mph 1022.4mb 42f 38f
8:30pm 15 18 mph 1022.3mb 42f 38f
8:24pm 16 18 mph 1022.4mb 42f 38f
8:12pm 13 21 mph 1022.2mb 42f 38f
8:06pm 17 18 mph 1022.1mb - 39f
8:00pm 16 18 mph 1022.2mb 42f 39f
7:54pm 15 17 mph 1022.2mb 42f 39f
7:48pm 13 16 mph 1022.1mb 42f 39f
7:42pm 15 16 mph 1021.9mb 42f 39f
7:36pm 14 17 mph 1021.8mb 42f 39f
7:30pm 15 17 mph 1021.7mb 42f 39f
7:24pm 13 18 mph 1021.7mb 42f 39f
7:18pm 15 17 mph 1021.6mb 42f 39f
7:12pm 15 18 mph 1021.7mb 42f 40f
7:06pm 16 20 mph 1021.6mb 42f 40f
7:00pm 16 20 mph 1021.5mb 42f 40f
6:54pm 18 20 mph 1021.4mb 42f 40f
6:48pm 15 20 mph 1021.4mb 42f 40f
6:42pm 15 20 mph 1021.3mb 42f 40f
6:36pm 16 18 mph 1021.2mb 42f 40f
6:30pm 15 20 mph 1021.1mb 42f 40f
6:24pm 15 18 mph 1021mb 42f 40f
6:18pm 14 16 mph 1021mb 42f 40f
6:00pm 11 15 mph 1020.9mb 42f 39f
5:54pm 14 15 mph 1020.9mb 42f 39f
5:48pm 14 15 mph 1020.9mb 42f 40f
5:42pm 14 15 mph 1020.9mb 42f 40f
5:36pm 14 16 mph 1020.9mb 42f 40f
5:30pm 15 17 mph 1020.7mb 42f 40f
5:24pm 15 17 mph 1020.6mb 42f 40f
5:18pm 16 18 mph 1020.4mb 42f 40f
5:12pm 16 20 mph 1020.4mb 42f 40f
5:06pm 18 21 mph 1020.2mb 42f 40f
5:00pm 18 21 mph 1020mb 42f 40f
4:54pm 18 21 mph 1019.9mb 42f 40f
4:48pm 20 21 mph 1019.7mb 42f 40f
4:42pm 20 22 mph 1019.6mb 42f 40f
4:36pm 18 21 mph 1019.7mb 42f 40f
4:30pm 17 20 mph 1019.8mb 42f 40f
4:24pm 16 18 mph 1019.8mb 42f 40f
4:18pm 17 20 mph 1019.8mb 42f 40f
4:12pm 17 20 mph 1019.7mb 42f 40f
4:06pm 17 18 mph 1019.7mb 42f 40f
4:00pm 17 20 mph 1019.6mb 42f 40f
3:54pm 15 17 mph 1019.6mb 42f 40f
3:48pm 14 15 mph 1019.6mb 42f 40f
3:42pm 14 17 mph 1019.5mb 42f 40f
3:36pm 15 18 mph 1019.3mb 42f 40f
3:30pm 16 17 mph 1019.2mb 42f 40f
3:24pm 16 18 mph 1019.1mb 42f 40f
3:18pm 17 20 mph 1018.9mb 42f 40f
3:12pm 18 21 mph 1018.7mb 42f 40f
3:06pm 17 22 mph 1018.6mb 42f 40f
3:00pm 20 22 mph 1018.5mb 42f 40f
2:54pm 16 20 mph 1018.6mb 42f 39f
2:48pm 20 22 mph 1018.5mb 42f 39f
2:42pm 16 20 mph 1018.6mb 42f 39f
2:36pm 18 20 mph 1018.6mb - 39f
2:30pm 18 23 mph 1018.7mb 42f 39f
2:24pm 16 21 mph 1018.7mb 42f 39f
2:18pm 21 22 mph 1018.6mb 42f 39f
2:12pm 17 22 mph 1018.6mb 42f 39f
2:06pm 20 22 mph 1018.6mb 42f 39f
2:00pm 20 24 mph 1018.6mb 42f 39f
1:54pm 18 23 mph 1018.5mb 42f 39f
1:48pm 18 22 mph 1018.6mb 42f 39f
1:42pm 18 21 mph 1018.7mb 42f 38f
1:36pm 17 22 mph 1018.7mb 42f 38f
1:30pm 17 20 mph 1018.7mb 42f 38f
1:24pm 18 21 mph 1018.7mb 42f 38f
1:18pm 18 21 mph 1018.6mb 42f 38f
1:12pm 18 21 mph 1018.6mb 42f 38f
1:06pm 20 22 mph 1018.7mb 42f 38f
1:00pm 18 22 mph 1018.7mb 42f 38f
12:54pm 20 23 mph 1018.9mb 42f 38f
12:48pm 18 22 mph 1019mb 42f 38f
12:42pm 20 23 mph 1018.9mb 42f 38f
12:36pm 21 23 mph 1018.8mb 42f 38f
12:30pm 20 22 mph 1018.8mb 42f 38f
12:24pm 20 22 mph 1018.8mb 42f 38f
12:18pm 21 23 mph 1018.9mb 42f 38f
12:12pm 20 22 mph 1019mb 42f 38f
12:06pm 17 20 mph 1019mb 42f 38f
12:00pm 17 23 mph 1019.1mb 42f 38f
11:54am 18 21 mph 1019.1mb 42f 38f
11:48am 18 21 mph 1019.2mb 42f 38f
11:42am 18 20 mph 1019.2mb 42f 37f
11:36am 16 20 mph 1019.4mb 42f 38f
11:30am 18 22 mph 1019.4mb - 37f
11:24am 17 21 mph 1019.3mb 42f 37f
11:18am 18 21 mph 1019.3mb 42f 37f
11:12am 18 22 mph 1019.3mb 42f 37f
11:06am 16 21 mph 1019.6mb 42f 37f
11:00am 20 22 mph 1019.6mb 42f 37f
10:54am 18 22 mph 1019.6mb 42f 37f
10:48am 18 22 mph 1019.7mb 42f 37f
10:42am 18 22 mph 1019.8mb 42f 37f
10:36am 20 22 mph 1019.7mb 42f 37f
10:30am 20 22 mph 1019.7mb 42f 37f
10:24am 18 22 mph 1019.9mb 42f 37f
10:18am 20 22 mph 1019.8mb 42f 37f
10:12am 18 22 mph 1019.8mb 42f 37f
10:06am 16 22 mph 1019.9mb - 37f
10:00am 18 23 mph 1019.8mb 42f 37f
9:54am 22 23 mph 1019.8mb 42f 37f
9:48am 20 22 mph 1019.8mb 42f 37f
9:42am 17 22 mph 1019.7mb 42f 37f
9:36am 20 23 mph 1019.7mb 42f 37f
9:30am 20 23 mph 1019.6mb 42f 37f
9:24am 18 23 mph 1019.6mb 42f 37f
9:18am 17 21 mph 1019.6mb 42f 37f
9:12am 16 21 mph 1019.6mb 42f 37f
9:06am 18 22 mph 1019.5mb 42f 37f
9:00am 20 22 mph 1019.5mb 42f 37f
8:54am 20 22 mph 1019.4mb 42f 37f
8:48am 17 23 mph 1019.4mb 42f 37f
8:42am 20 22 mph 1019.3mb 42f 37f
8:36am 18 22 mph 1019.3mb 42f 36f
8:30am 18 22 mph 1019.2mb 42f 37f
8:24am 20 23 mph 1019.2mb 42f 37f
8:18am 18 22 mph 1019.1mb 42f 37f
8:12am 17 21 mph 1019.1mb 42f 37f
8:06am 16 22 mph 1019mb 42f 36f
8:00am 17 21 mph 1018.9mb 42f 36f
7:54am 18 22 mph 1018.9mb 42f 36f
7:48am 18 22 mph 1018.8mb 42f 36f
7:42am 21 24 mph 1018.8mb 42f 36f
7:36am 16 21 mph 1018.9mb 42f 36f
7:30am 16 20 mph 1018.9mb 42f 36f
7:24am 17 20 mph 1018.8mb 42f 36f
7:18am 18 22 mph 1018.9mb 42f 36f
7:12am 18 21 mph 1018.8mb 42f 36f
7:06am 17 20 mph 1018.7mb 42f 36f
7:00am 16 20 mph 1018.6mb 42f 37f
6:54am 17 22 mph 1018.5mb 42f 36f
6:48am 17 21 mph 1018.5mb 42f 36f
6:42am 16 20 mph 1018.5mb 42f 36f
6:36am 16 20 mph 1018.5mb 42f 36f
6:30am 17 21 mph 1018.4mb 42f 36f
6:24am 15 18 mph 1018.4mb 42f 36f
6:18am 16 17 mph 1018.4mb - 36f
6:12am 15 17 mph 1018.3mb 42f 36f
6:06am 15 17 mph 1018.3mb 42f 36f
6:00am 16 18 mph 1018.2mb 42f 36f
5:54am 15 18 mph 1018.1mb 42f 36f
5:48am 15 17 mph 1018.1mb 42f 36f
5:42am 15 18 mph 1018.1mb 42f 36f
5:36am 15 18 mph 1018.1mb 42f 36f
5:30am 15 17 mph 1018mb 42f 36f
5:24am 15 17 mph 1017.9mb 42f 36f
5:18am 15 17 mph 1017.9mb 42f 36f
5:12am 15 17 mph 1017.9mb 42f 36f
5:06am 15 20 mph 1017.9mb 42f 36f
5:00am 16 20 mph 1017.9mb - 36f
4:54am 15 18 mph 1017.9mb 42f 36f
4:48am 15 18 mph 1017.9mb 42f 36f
4:42am 14 17 mph 1017.8mb 42f 36f
4:36am 14 18 mph 1017.9mb 42f 36f
4:30am 16 18 mph 1017.8mb 42f 37f
4:24am 16 20 mph 1017.8mb 42f 37f
4:18am 16 20 mph 1017.8mb 42f 37f
4:12am 17 21 mph 1017.8mb 42f 37f
4:06am 18 22 mph 1017.8mb 42f 36f
4:00am 18 21 mph 1017.7mb 42f 36f
3:54am 16 20 mph 1017.9mb 42f 36f
3:48am 16 18 mph 1018mb 42f 37f
3:42am 17 21 mph 1018.1mb 42f 37f
3:36am 17 20 mph 1018.1mb 42f 37f
3:30am 18 20 mph 1018mb 42f 37f
3:24am 17 21 mph 1018mb 42f 37f
3:18am 18 20 mph 1018mb 42f 37f
3:12am 17 21 mph 1018mb 42f 37f
3:06am 17 20 mph 1018.1mb 42f 37f
3:00am 16 20 mph 1018.1mb 42f 37f
2:54am 16 18 mph 1018mb 42f 37f
2:48am 15 20 mph 1018.1mb 42f 37f
2:42am 15 18 mph 1018.1mb 42f 37f
2:36am 16 18 mph 1018.1mb 42f 37f
2:30am 17 20 mph 1018mb 42f 37f
2:24am 16 20 mph 1018mb 42f 37f
2:18am 17 21 mph 1018mb 42f 37f
2:12am 18 21 mph 1017.9mb 42f 37f
2:06am 16 17 mph 1017.9mb 42f 37f
2:00am 16 18 mph 1017.8mb 42f 37f
1:54am 16 18 mph 1017.7mb 42f 37f
1:48am 15 18 mph 1017.8mb 42f 37f
1:42am 16 18 mph 1017.7mb 42f 37f
1:36am 16 21 mph 1017.7mb 42f 37f
1:30am 17 21 mph 1017.6mb 42f 37f
1:24am 18 20 mph 1017.6mb 42f 37f
1:18am 17 20 mph 1017.6mb 42f 37f
1:12am 17 20 mph 1017.6mb 42f 37f
1:06am 17 20 mph 1017.6mb 42f 37f
1:00am 16 21 mph 1017.6mb 42f 37f
12:54am 18 21 mph 1017.5mb 42f 37f
12:48am 18 21 mph 1017.5mb 42f 37f
12:42am 20 23 mph 1017.4mb 42f 37f
12:36am 20 23 mph 1017.4mb 42f 37f
12:30am 20 22 mph 1017.3mb 42f 37f
12:24am 18 22 mph 1017.4mb 42f 37f
12:18am 18 22 mph 1017.4mb 42f 37f
12:12am 18 23 mph 1017.5mb 42f 37f
12:06am 20 22 mph 1017.6mb 42f 37f
12:00am 20 22 mph 1017.6mb 42f 37f
Thu 12/18 11:54pm 21 23 mph 1017.6mb 42f 37f
11:48pm 21 23 mph 1017.6mb - 37f
11:42pm 20 22 mph 1017.6mb - 37f
11:36pm 18 22 mph 1017.6mb 42f 37f
11:30pm 17 21 mph 1017.9mb 42f 37f
11:24pm 18 22 mph 1017.9mb 42f 37f
11:18pm 18 21 mph 1017.9mb 42f 37f
11:12pm 20 22 mph 1018mb 42f 37f
11:06pm 18 21 mph 1017.9mb 42f 37f
11:00pm 18 22 mph 1017.9mb 42f 37f
10:54pm 18 20 mph 1018mb 42f 37f
10:48pm 16 18 mph 1018mb 42f 37f
10:42pm 17 20 mph 1018.1mb 42f 37f
10:36pm 17 20 mph 1018.2mb 42f 37f
10:30pm 16 20 mph 1018mb 42f 37f
10:24pm 17 20 mph 1018.2mb 42f 37f
10:18pm 16 18 mph 1018.3mb 42f 37f
10:12pm 17 21 mph 1018.2mb 42f 37f
10:06pm 18 22 mph 1018.2mb 42f 37f
10:00pm 18 21 mph 1018.2mb 42f 37f
9:54pm 18 21 mph 1018.2mb 42f 37f
9:48pm 18 21 mph 1018.1mb 42f 37f
9:42pm 17 20 mph 1018.2mb 42f 37f
9:36pm 18 22 mph 1018.3mb 42f 37f
9:30pm 20 22 mph 1018.2mb 42f 37f
9:24pm 18 22 mph 1018.2mb 42f 37f
9:18pm 17 21 mph 1018.1mb 42f 37f
9:12pm 18 22 mph 1018.4mb 42f 37f
9:06pm 20 22 mph 1018.4mb 42f 37f
9:00pm 20 22 mph 1018.3mb 42f 37f
8:54pm 20 22 mph 1018.2mb 42f 37f
8:48pm 18 22 mph 1018.5mb 42f 37f
8:42pm 21 25 mph 1018.6mb 42f 37f
8:36pm 20 25 mph 1018.7mb 42f 37f
8:30pm 21 25 mph 1018.7mb 42f 37f
8:24pm 22 24 mph 1018.7mb 42f 37f
8:18pm 21 24 mph 1018.8mb 42f 37f
8:12pm 21 23 mph 1018.7mb 42f 37f
8:06pm 20 23 mph 1018.7mb 42f 37f
8:00pm 18 21 mph 1018.7mb 42f 37f
7:54pm 18 20 mph 1018.6mb 42f 37f
7:48pm 17 20 mph 1018.7mb 42f 37f
7:42pm 16 21 mph 1018.5mb 42f 37f
7:30pm 16 21 mph 1018.4mb - 37f
7:24pm 16 21 mph 1018.5mb 42f 37f
7:18pm 18 21 mph 1018.3mb 42f 37f
7:12pm 18 22 mph 1018.2mb 42f 37f
7:06pm 18 21 mph 1018.2mb 42f 37f
7:00pm 16 20 mph 1018.2mb 42f 37f
6:54pm 18 21 mph 1018.2mb 42f 37f
6:48pm 16 21 mph 1018.3mb 42f 37f
6:36pm 18 21 mph 1018.4mb 42f 37f
6:30pm 18 21 mph 1018.2mb 42f 38f
6:24pm 18 22 mph 1018.2mb 42f 38f
6:18pm 22 24 mph 1018mb - 38f
6:12pm 22 24 mph 1017.9mb 42f 38f
6:06pm 21 24 mph 1017.9mb 42f 38f
6:00pm 21 24 mph 1017.8mb 42f 38f
5:54pm 20 24 mph 1017.7mb 42f 38f
5:48pm 22 28 mph 1017.7mb 42f 38f
5:42pm 23 28 mph 1017.6mb 42f 38f
5:36pm 23 25 mph 1017.3mb 42f 38f
5:30pm 22 24 mph 1017.5mb 42f 38f
5:24pm 22 24 mph 1017.5mb 42f 38f
5:18pm 22 25 mph 1017.7mb - 38f
5:12pm 21 23 mph 1017.7mb - 38f
5:06pm 17 24 mph 1017.6mb - 38f
5:00pm 22 26 mph 1017.5mb 43f 39f
4:54pm 22 26 mph 1017.4mb 43f 38f
4:48pm 22 26 mph 1017.4mb 43f 38f
4:42pm 24 26 mph 1017.2mb 43f 38f
4:36pm 24 29 mph 1017.4mb 43f 39f
4:30pm 23 26 mph 1017.5mb 43f 39f
4:24pm 22 25 mph 1017.6mb 43f 39f
4:18pm 23 26 mph 1017.6mb 43f 38f
4:12pm 23 26 mph 1017.5mb 43f 39f
4:06pm 21 23 mph 1017.5mb 43f 39f
4:00pm 20 23 mph 1017.4mb 43f 39f
3:54pm 22 25 mph 1017.4mb 43f 39f
3:48pm 20 25 mph 1017.2mb 43f 39f
3:42pm 23 25 mph 1017.1mb 43f 39f
3:36pm 22 25 mph 1017.1mb 43f 39f
3:30pm 22 24 mph 1017.1mb 43f 39f
3:24pm 22 25 mph 1017.1mb 43f 39f
3:18pm 21 25 mph 1017mb 43f 39f
3:12pm 23 26 mph 1017mb 43f 39f
3:06pm 23 24 mph 1017mb 43f 39f
3:00pm 20 24 mph 1017.2mb 43f 39f
2:54pm 22 23 mph 1017.2mb 43f 39f
2:48pm 20 25 mph 1017.3mb 43f 39f
2:42pm 22 26 mph 1017.1mb 43f 39f
2:36pm 24 26 mph 1016.9mb 43f 39f
2:30pm 23 25 mph 1017mb 43f 39f
2:24pm 20 24 mph 1017mb 43f 39f
2:18pm 20 24 mph 1017mb - 38f
2:12pm 20 22 mph 1017mb - 38f
2:06pm 20 23 mph 1017.1mb - 38f
2:00pm 16 22 mph 1017.2mb 43f 38f
1:54pm 20 23 mph 1017.2mb 43f 38f
1:48pm 20 23 mph 1017.3mb 43f 38f
1:42pm 21 28 mph 1017.4mb 43f 38f
1:36pm 24 26 mph 1017.2mb 43f 38f
1:30pm 24 28 mph 1017.3mb 43f 38f
1:24pm 23 26 mph 1017.5mb 43f 38f
1:18pm 24 26 mph 1017.4mb 43f 38f
1:12pm 21 26 mph 1017.6mb 43f 38f
1:06pm 21 26 mph 1017.6mb 43f 38f
1:00pm 24 29 mph 1017.6mb 43f 38f
12:54pm 24 28 mph 1017.6mb 43f 38f
12:48pm 26 30 mph 1017.6mb 43f 38f
12:42pm 23 30 mph 1017.7mb 43f 38f
12:36pm 24 26 mph 1017.7mb 42f 38f
12:30pm 24 28 mph 1017.9mb 42f 38f
12:24pm 24 29 mph 1018mb 42f 38f
12:18pm 24 28 mph 1017.9mb 42f 38f
12:12pm 25 29 mph 1018mb 42f 38f
12:06pm 24 29 mph 1018.1mb 42f 38f
12:00pm 23 28 mph 1018.3mb 42f 38f
11:54am 26 28 mph 1018.4mb 42f 37f
11:48am 23 28 mph 1018.5mb 42f 37f
11:42am 23 25 mph 1018.5mb 42f 37f
11:36am 22 25 mph 1018.7mb 42f 37f
11:30am 20 26 mph 1019mb 42f 37f
11:24am 24 28 mph 1019mb 42f 37f
11:18am 23 28 mph 1019.2mb 42f 37f
11:12am 24 28 mph 1019.2mb 42f 37f
11:06am 25 28 mph 1019.1mb 42f 37f
10:54am 22 29 mph 1019.2mb 42f 37f
10:48am 25 29 mph 1019.3mb 42f 37f
10:42am 24 28 mph 1019.3mb 42f 37f
10:36am 26 29 mph 1019.3mb 42f 37f
10:30am 25 29 mph 1019.6mb 42f 37f
10:24am 25 29 mph 1019.4mb 42f 37f
10:18am 25 26 mph 1019.5mb - 37f
10:12am 24 28 mph 1019.7mb 42f 37f
10:06am 22 29 mph 1019.7mb 42f 37f
10:00am 25 29 mph 1019.6mb 42f 37f
9:54am 24 31 mph 1019.6mb 42f 37f
9:48am 25 31 mph 1019.7mb - 37f
9:42am 30 33 mph 1019.6mb - 37f
9:36am 26 29 mph 1019.6mb 42f 37f
9:30am 24 30 mph 1019.5mb 42f 37f
9:24am 24 28 mph 1019.5mb 42f 37f
9:18am 23 28 mph 1019.5mb 42f 37f
9:12am 23 29 mph 1019.5mb 42f 37f
9:06am 24 25 mph 1019.5mb 42f 37f
9:00am 22 25 mph 1019.5mb 42f 37f
8:54am 21 24 mph 1019.6mb 42f 37f
8:48am 22 25 mph 1019.6mb 42f 37f
8:42am 22 29 mph 1019.5mb 42f 37f
8:36am 22 25 mph 1019.6mb 42f 37f
8:30am 22 25 mph 1019.5mb 42f 37f
8:24am 22 28 mph 1019.4mb 42f 37f
8:18am 24 30 mph 1019.2mb 42f 37f
8:12am 24 31 mph 1019mb - 37f
8:06am 21 25 mph 1019.2mb 42f 37f
8:00am 22 25 mph 1019.1mb 42f 37f
7:54am 22 25 mph 1019mb 42f 37f
7:48am 21 25 mph 1019mb 42f 37f
7:42am 20 26 mph 1019mb 42f 37f
7:36am 23 28 mph 1018.8mb 42f 37f
7:30am 23 25 mph 1018.7mb 42f 37f
7:24am 25 28 mph 1018.7mb 42f 37f
7:18am 21 26 mph 1018.8mb 42f 37f
7:12am 25 29 mph 1018.6mb 42f 37f
7:06am 23 25 mph 1018.6mb 43f 37f
7:00am 24 28 mph 1018.8mb 43f 37f
6:54am 24 29 mph 1018.7mb 43f 37f
6:48am 20 28 mph 1018.7mb 43f 37f
6:42am 21 24 mph 1018.6mb 43f 37f
6:36am 23 26 mph 1018.5mb 42f 37f
6:30am 21 24 mph 1018.5mb 42f 37f
6:24am 21 23 mph 1018.5mb 42f 37f
6:18am 20 22 mph 1018.6mb 42f 37f
6:12am 17 21 mph 1018.6mb 42f 37f
6:06am 18 23 mph 1018.5mb 42f 37f
6:00am 21 25 mph 1018.4mb 42f 37f
5:54am 22 24 mph 1018.3mb 42f 37f
5:48am 18 28 mph 1018.2mb 42f 37f
5:42am 20 25 mph 1018.2mb 42f 37f
5:36am 20 25 mph 1018.1mb 42f 37f
5:30am 24 29 mph 1018mb 42f 37f
5:24am 24 29 mph 1017.9mb 42f 37f
5:18am 22 28 mph 1017.8mb 42f 38f
5:12am 24 29 mph 1017.7mb 42f 37f
5:06am 26 30 mph 1017.7mb 42f 37f
5:00am 24 29 mph 1017.7mb 42f 37f
4:54am 28 31 mph 1017.6mb 42f 37f
4:48am 25 30 mph 1017.5mb 42f 38f
4:42am 24 30 mph 1017.5mb 42f 38f
4:36am 23 26 mph 1017.5mb 42f 38f
4:30am 23 26 mph 1017.2mb 43f 38f
4:24am 24 28 mph 1017mb 43f 38f
4:18am 25 29 mph 1016.8mb 43f 38f
4:12am 26 30 mph 1016.8mb 43f 38f
4:06am 22 26 mph 1016.9mb 43f 38f
4:00am 25 28 mph 1016.7mb 43f 38f
3:54am 23 29 mph 1016.6mb 43f 38f
3:48am 25 28 mph 1016.7mb 43f 38f
3:42am 25 29 mph 1016.6mb 43f 38f
3:36am 25 31 mph 1016.8mb 43f 39f
3:30am 23 25 mph 1016.7mb 43f 38f
3:24am 23 28 mph 1016.8mb 43f 39f
3:18am 22 25 mph 1016.8mb 43f 39f
3:12am 22 24 mph 1016.8mb 43f 39f
3:06am 20 24 mph 1016.8mb 43f 39f
3:00am 20 24 mph 1016.8mb 43f 39f
2:54am 21 22 mph 1016.8mb 43f 39f
2:48am 20 25 mph 1016.7mb 43f 39f
2:42am 17 22 mph 1016.8mb 43f 39f
2:36am 17 20 mph 1016.7mb 43f 39f
2:30am 16 17 mph 1016.7mb 43f 39f
2:24am 17 21 mph 1016.7mb 43f 39f
2:18am 18 22 mph 1016.6mb 43f 39f
2:12am 20 22 mph 1016.4mb 43f 39f
2:06am 20 23 mph 1016.5mb 43f 39f
2:00am 18 22 mph 1016.4mb 43f 39f
1:54am 21 23 mph 1016.3mb 43f 39f
1:48am 18 22 mph 1016.4mb 43f 39f
1:42am 21 22 mph 1016.3mb 43f 39f
1:36am 16 18 mph 1016.2mb 43f 39f
1:30am 16 20 mph 1016.2mb 43f 39f
1:24am 17 20 mph 1016.1mb 43f 39f
1:18am 16 17 mph 1016.2mb 43f 39f
1:12am 15 17 mph 1016.1mb 43f 39f
1:06am 14 16 mph 1016.1mb 43f 38f
1:00am 16 17 mph 1016mb 43f 38f
12:54am 15 22 mph 1016.1mb 43f 38f
12:48am 18 22 mph 1016mb 43f 38f
12:42am 18 20 mph 1016mb 43f 38f
12:36am 18 21 mph 1015.9mb 43f 38f
12:30am 16 20 mph 1015.9mb 43f 39f
12:24am 17 20 mph 1015.9mb 43f 39f
12:18am 17 20 mph 1015.9mb 43f 39f
12:12am 17 20 mph 1015.8mb 43f 39f
12:06am 18 21 mph 1015.8mb 43f 39f
12:00am 18 21 mph 1015.6mb 43f 39f
Wed 12/17 11:54pm 20 23 mph 1015.6mb 43f 39f
11:48pm 22 24 mph 1015.6mb 43f 39f
11:42pm 20 24 mph 1015.6mb 43f 40f
11:36pm 22 25 mph 1015.5mb 43f 40f
11:30pm 22 23 mph 1015.5mb 43f 40f
11:24pm 22 24 mph 1015.5mb 43f 40f
11:18pm 23 25 mph 1015.4mb 43f 40f
11:12pm 24 26 mph 1015.4mb 43f 40f
11:06pm 24 25 mph 1015.3mb 43f 40f
11:00pm 22 25 mph 1015.5mb 43f 40f
10:54pm 23 26 mph 1015.5mb 43f 40f
10:48pm 24 28 mph 1015.4mb 43f 40f
10:42pm 25 28 mph 1015.3mb 43f 40f
10:36pm 23 28 mph 1015.5mb 43f 40f
10:30pm 23 26 mph 1015.5mb 43f 40f
10:24pm 24 29 mph 1015.6mb 43f 40f
10:18pm 24 29 mph 1015.6mb 43f 40f
10:12pm 25 29 mph 1015.7mb 43f 41f
10:06pm 22 29 mph 1015.9mb 43f 41f
10:00pm 24 28 mph 1015.7mb 43f 41f
9:54pm 24 28 mph 1015.7mb 43f 41f
9:48pm 25 28 mph 1015.6mb 43f 41f
9:42pm 23 25 mph 1015.6mb 43f 41f
9:36pm 22 23 mph 1015.7mb 43f 41f
9:30pm 20 22 mph 1015.7mb 43f 41f
9:24pm 18 20 mph 1015.9mb 43f 41f
9:18pm 16 20 mph 1015.9mb 43f 41f
9:12pm 16 20 mph 1015.9mb 43f 42f
9:06pm 17 21 mph 1015.9mb 43f 42f
9:00pm 15 20 mph 1015.9mb 43f 42f
8:54pm 18 22 mph 1015.9mb 43f 42f
8:48pm 18 22 mph 1015.8mb 43f 42f
8:42pm 20 22 mph 1015.8mb 43f 42f
8:36pm 20 22 mph 1015.8mb 43f 42f
8:30pm 18 21 mph 1015.9mb 43f 42f
8:24pm 18 21 mph 1015.9mb 43f 43f
8:18pm 18 22 mph 1015.9mb 43f 43f
8:12pm 20 22 mph 1015.8mb 43f 43f
8:00pm 20 23 mph 1015.7mb 43f 43f
7:54pm 18 25 mph 1015.7mb 43f 43f
7:48pm 21 23 mph 1015.6mb 43f 43f
7:42pm 22 24 mph 1015.5mb 43f 43f
7:36pm 18 22 mph 1015.4mb 43f 44f
7:30pm 20 22 mph 1015.4mb 43f 44f
7:24pm 16 22 mph 1015.4mb 43f 43f
7:18pm 16 20 mph 1015.3mb 43f 43f
7:12pm 16 21 mph 1015.3mb 43f 43f
7:00pm 18 22 mph 1015.1mb 43f 44f
6:54pm 20 24 mph 1015mb 43f 44f
6:48pm 21 22 mph 1014.9mb 43f 44f
6:36pm 20 22 mph 1014.9mb 43f 44f
6:30pm 20 22 mph 1014.9mb 43f 44f
6:24pm 18 22 mph 1014.8mb 43f 44f
6:18pm 21 23 mph 1014.7mb 43f 45f
6:12pm 20 21 mph 1014.7mb 43f 45f
6:06pm 17 20 mph 1014.8mb 43f 45f
6:00pm 16 18 mph 1014.8mb 43f 45f
5:54pm 17 20 mph 1014.7mb 43f 45f
5:48pm 18 21 mph 1014.6mb 43f 45f
5:42pm 20 23 mph 1014.5mb 43f 46f
5:36pm 18 24 mph 1014.5mb 43f 46f
5:30pm 18 22 mph 1014.4mb 43f 46f
5:24pm 16 20 mph 1014.4mb 43f 46f
5:18pm 17 18 mph 1014.3mb 43f 46f
5:12pm 16 18 mph 1014.2mb 43f 46f
5:06pm 15 17 mph 1014.1mb 43f 46f
5:00pm 16 18 mph 1014mb 43f 46f
4:54pm 17 20 mph 1013.9mb 43f 47f
4:48pm 16 17 mph 1013.8mb 43f 47f
4:36pm 16 21 mph 1013.8mb 43f 47f
4:30pm 22 25 mph 1013.6mb 43f 48f
4:24pm 24 26 mph 1013.5mb 43f 48f
4:18pm 22 25 mph 1013.5mb - 48f
4:06pm 22 25 mph 1013.6mb 43f 48f
4:00pm 22 25 mph 1013.5mb 43f 49f
3:54pm 22 25 mph 1013.5mb 43f 48f
3:48pm 23 28 mph 1013.4mb 43f 49f
3:42pm 25 29 mph 1013.2mb 43f 49f
3:36pm 22 26 mph 1013.3mb 43f 49f
3:30pm 18 20 mph 1013.4mb 43f 48f
3:18pm 18 21 mph 1013.3mb - 49f
3:12pm 17 22 mph 1013.3mb 43f 48f
3:06pm 22 28 mph 1013mb 43f 50f
3:00pm 24 28 mph 1012.8mb 43f 50f
2:54pm 20 24 mph 1012.9mb 43f 49f
2:48pm 22 25 mph 1012.8mb 43f 49f
2:42pm 24 28 mph 1012.6mb 43f 49f
2:36pm 25 28 mph 1012.5mb 43f 50f
2:30pm 22 28 mph 1012.7mb 43f 49f
2:24pm 24 26 mph 1012.5mb 43f 50f
2:18pm 24 26 mph 1012.6mb 43f 50f
2:12pm 25 28 mph 1012.5mb 43f 50f
2:06pm 23 26 mph 1012.7mb 43f 50f
2:00pm 23 25 mph 1012.7mb - 50f
1:54pm 18 24 mph 1012.8mb 43f 50f
1:48pm 18 21 mph 1012.8mb 43f 50f
1:42pm 22 24 mph 1012.7mb 43f 50f
1:36pm 16 20 mph 1012.9mb 43f 49f
1:30pm 17 21 mph 1012.9mb 43f 50f
1:24pm 18 21 mph 1012.8mb 43f 49f
1:18pm 18 21 mph 1012.8mb 43f 50f
1:12pm 20 21 mph 1012.7mb 43f 50f
1:06pm 20 25 mph 1012.7mb - 50f
1:00pm 22 28 mph 1012.6mb 43f 50f
12:54pm 23 25 mph 1012.6mb 43f 50f
12:48pm 25 28 mph 1012.5mb 43f 51f
12:42pm 21 23 mph 1012.7mb 43f 50f
12:36pm 23 28 mph 1012.7mb 43f 50f
12:30pm 17 22 mph 1012.9mb 43f 49f
12:24pm 21 25 mph 1012.9mb 43f 50f
12:18pm 20 23 mph 1012.9mb 43f 49f
12:12pm 17 22 mph 1013.1mb 43f 49f
12:06pm 21 24 mph 1013mb 43f 49f
12:00pm 22 23 mph 1013mb 43f 49f
11:54am 18 23 mph 1013.1mb 43f 49f
11:48am 18 24 mph 1013.1mb 43f 49f
11:42am 16 24 mph 1013.3mb 43f 49f